createdAt,value
2022-09-01T00:00:02.636Z,101341.91
2022-09-01T00:02:30.103Z,101345.56
2022-09-01T00:04:59.077Z,101338.25
2022-09-01T00:07:30.040Z,101342.59
2022-09-01T00:09:56.798Z,101341.53
2022-09-01T00:12:25.624Z,101340.97
2022-09-01T00:14:52.399Z,101337.16
2022-09-01T00:17:18.846Z,101346.19
2022-09-01T00:19:45.307Z,101343.38
2022-09-01T00:22:11.920Z,101343.97
2022-09-01T00:24:38.546Z,101348.00
2022-09-01T00:27:05.064Z,101342.97
2022-09-01T00:29:31.527Z,101337.56
2022-09-01T00:31:58.190Z,101342.38
2022-09-01T00:34:24.822Z,101342.28
2022-09-01T00:36:51.766Z,101346.25
2022-09-01T00:39:18.344Z,101342.97
2022-09-01T00:41:45.317Z,101345.41
2022-09-01T00:44:14.771Z,101344.69
2022-09-01T00:46:55.477Z,101344.19
2022-09-01T00:49:29.761Z,101330.38
2022-09-01T00:52:05.033Z,101344.03
2022-09-01T00:54:35.583Z,101341.91
2022-09-01T00:57:03.566Z,101349.03
2022-09-01T00:59:30.717Z,101348.53
2022-09-01T01:01:58.108Z,101341.63
2022-09-01T01:04:25.602Z,101338.13
2022-09-01T01:07:01.596Z,101347.63
2022-09-01T01:09:36.511Z,101342.25
2022-09-01T01:12:05.261Z,101344.06
2022-09-01T01:15:37.868Z,101347.88
2022-09-01T01:18:04.576Z,101340.03
2022-09-01T01:20:52.174Z,101340.13
2022-09-01T01:23:26.242Z,101346.66
2022-09-01T01:25:58.542Z,101344.63
2022-09-01T01:28:31.199Z,101346.03
2022-09-01T01:31:01.327Z,101342.41
2022-09-01T01:33:43.036Z,101350.63
2022-09-01T01:36:35.808Z,101353.25
2022-09-01T01:39:08.517Z,101357.16
2022-09-01T01:41:36.290Z,101350.97
2022-09-01T01:44:05.228Z,101346.56
2022-09-01T01:46:33.704Z,101349.38
2022-09-01T01:49:20.098Z,101357.25
2022-09-01T01:51:49.048Z,101355.84
2022-09-01T01:54:19.730Z,101357.28
2022-09-01T01:56:46.138Z,101357.03
2022-09-01T01:59:14.950Z,101351.63
2022-09-01T02:01:43.019Z,101358.47
2022-09-01T02:04:11.113Z,101358.38
2022-09-01T02:06:41.299Z,101360.03
2022-09-01T02:09:08.011Z,101358.19
2022-09-01T02:11:37.904Z,101355.25
2022-09-01T02:14:06.701Z,101355.13
2022-09-01T02:16:34.429Z,101355.16
2022-09-01T02:19:02.296Z,101360.34
2022-09-01T02:21:29.258Z,101352.63
2022-09-01T02:24:02.363Z,101359.91
2022-09-01T02:26:32.279Z,101362.34
2022-09-01T02:29:04.716Z,101356.31
2022-09-01T02:31:35.343Z,101349.47
2022-09-01T02:34:02.452Z,101355.59
2022-09-01T02:36:32.886Z,101356.50
2022-09-01T02:38:59.453Z,101360.22
2022-09-01T02:41:28.961Z,101352.25
2022-09-01T02:43:55.670Z,101360.00
2022-09-01T02:46:24.555Z,101345.06
2022-09-01T02:48:51.518Z,101353.38
2022-09-01T02:51:20.911Z,101359.34
2022-09-01T02:53:52.170Z,101354.44
2022-09-01T02:56:22.765Z,101362.44
2022-09-01T02:58:52.249Z,101359.72
2022-09-01T03:01:25.250Z,101359.97
2022-09-01T03:03:54.989Z,101357.53
2022-09-01T03:06:24.584Z,101358.50
2022-09-01T03:08:56.569Z,101358.50
2022-09-01T03:11:24.444Z,101356.09
2022-09-01T03:13:51.355Z,101358.28
2022-09-01T03:16:19.083Z,101358.50
2022-09-01T03:18:45.637Z,101358.72
2022-09-01T03:21:16.133Z,101360.53
2022-09-01T03:23:44.856Z,101366.75
2022-09-01T03:26:50.292Z,101372.94
2022-09-01T03:29:18.202Z,101359.84
2022-09-01T03:31:44.925Z,101369.34
2022-09-01T03:34:12.369Z,101363.97
2022-09-01T03:36:39.984Z,101370.31
2022-09-01T03:39:14.590Z,101362.81
2022-09-01T03:41:43.621Z,101364.34
2022-09-01T03:44:14.157Z,101368.88
2022-09-01T03:46:40.631Z,101359.16
2022-09-01T03:49:08.045Z,101356.44
2022-09-01T03:51:35.113Z,101361.38
2022-09-01T03:54:01.562Z,101358.00
2022-09-01T03:57:00.729Z,101353.44
2022-09-01T03:59:29.942Z,101356.50
2022-09-01T04:01:57.484Z,101363.88
2022-09-01T04:04:24.606Z,101366.28
2022-09-01T04:06:51.033Z,101362.13
2022-09-01T04:09:17.593Z,101365.94
2022-09-01T04:11:46.863Z,101359.38
2022-09-01T04:14:13.479Z,101356.66
2022-09-01T04:16:58.649Z,101363.63
2022-09-01T04:19:26.436Z,101363.53
2022-09-01T04:21:59.978Z,101359.81
2022-09-01T04:24:28.236Z,101363.69
2022-09-01T04:26:56.221Z,101360.13
2022-09-01T04:29:29.156Z,101367.16
2022-09-01T04:35:40.170Z,101357.00
2022-09-01T04:38:08.410Z,101357.19
2022-09-01T04:40:41.917Z,101358.69
2022-09-01T04:43:09.197Z,101364.56
2022-09-01T04:49:26.977Z,101367.63
2022-09-01T04:51:54.421Z,101368.88
2022-09-01T04:58:10.213Z,101358.13
2022-09-01T05:04:28.796Z,101364.47
2022-09-01T05:06:59.656Z,101366.28
2022-09-01T05:09:31.629Z,101359.94
2022-09-01T05:12:01.641Z,101362.31
2022-09-01T05:14:28.807Z,101366.94
2022-09-01T05:16:58.968Z,101357.00
2022-09-01T05:23:13.319Z,101366.94
2022-09-01T05:25:43.915Z,101372.34
2022-09-01T05:28:13.085Z,101365.94
2022-09-01T05:30:40.978Z,101371.00
2022-09-01T05:33:12.441Z,101365.81
2022-09-01T05:35:43.494Z,101371.69
2022-09-01T05:38:15.584Z,101363.78
2022-09-01T05:40:43.746Z,101366.72
2022-09-01T05:43:12.512Z,101372.34
2022-09-01T05:46:03.337Z,101370.31
2022-09-01T05:48:31.585Z,101374.63
2022-09-01T05:50:59.861Z,101373.81
2022-09-01T05:53:31.105Z,101377.78
2022-09-01T05:55:58.427Z,101379.25
2022-09-01T05:58:26.840Z,101372.81
2022-09-01T06:00:55.749Z,101377.34
2022-09-01T06:03:22.983Z,101376.53
2022-09-01T06:09:41.534Z,101371.47
2022-09-01T06:12:17.527Z,101366.78
2022-09-01T06:14:45.342Z,101367.91
2022-09-01T06:17:11.892Z,101373.53
2022-09-01T06:19:39.993Z,101374.00
2022-09-01T06:22:06.470Z,101371.69
2022-09-01T06:24:33.539Z,101373.97
2022-09-01T06:26:59.988Z,101376.00
2022-09-01T06:29:26.412Z,101374.53
2022-09-01T06:31:52.955Z,101371.91
2022-09-01T06:34:19.672Z,101377.53
2022-09-01T06:36:48.503Z,101369.56
2022-09-01T06:39:20.007Z,101374.44
2022-09-01T06:41:52.747Z,101375.69
2022-09-01T06:44:22.980Z,101383.03
2022-09-01T06:46:53.117Z,101383.97
2022-09-01T06:49:21.529Z,101379.66
2022-09-01T06:51:49.671Z,101378.72
2022-09-01T06:54:19.058Z,101378.13
2022-09-01T06:56:51.482Z,101380.97
2022-09-01T06:59:19.965Z,101375.59
2022-09-01T07:01:48.940Z,101381.59
2022-09-01T07:04:21.423Z,101377.66
2022-09-01T07:07:00.139Z,101380.09
2022-09-01T07:09:38.605Z,101371.91
2022-09-01T07:12:27.742Z,101385.47
2022-09-01T07:17:42.564Z,101388.78
2022-09-01T07:20:26.811Z,101378.78
2022-09-01T07:23:10.486Z,101383.56
2022-09-01T07:26:01.069Z,101381.16
2022-09-01T07:28:36.179Z,101378.00
2022-09-01T07:33:55.789Z,101370.13
2022-09-01T07:45:28.358Z,101368.38
2022-09-01T07:47:55.904Z,101366.53
2022-09-01T07:50:39.903Z,101364.59
2022-09-01T07:53:12.470Z,101354.66
2022-09-01T07:55:44.123Z,101360.88
2022-09-01T07:58:11.860Z,101357.88
2022-09-01T08:00:46.071Z,101361.78
2022-09-01T08:03:13.967Z,101363.25
2022-09-01T08:05:40.978Z,101363.97
2022-09-01T08:08:18.563Z,101358.41
2022-09-01T08:10:49.167Z,101354.91
2022-09-01T08:13:16.760Z,101350.88
2022-09-01T08:18:48.200Z,101358.13
2022-09-01T08:21:15.536Z,101347.41
2022-09-01T08:23:42.266Z,101348.84
2022-09-01T08:26:11.939Z,101352.19
2022-09-01T08:28:39.624Z,101354.88
2022-09-01T08:31:11.197Z,101353.75
2022-09-01T08:33:39.424Z,101354.56
2022-09-01T08:36:08.070Z,101355.34
2022-09-01T08:38:34.731Z,101353.78
2022-09-01T08:41:03.278Z,101358.13
2022-09-01T08:43:58.274Z,101354.59
2022-09-01T08:46:28.426Z,101351.22
2022-09-01T08:52:08.847Z,101353.06
2022-09-01T08:54:49.765Z,101344.81
2022-09-01T08:57:20.607Z,101345.16
2022-09-01T08:59:47.591Z,101346.28
2022-09-01T09:02:25.289Z,101338.84
2022-09-01T09:05:02.038Z,101338.34
2022-09-01T09:08:07.262Z,101333.09
2022-09-01T09:10:49.219Z,101334.97
2022-09-01T09:13:39.794Z,101329.91
2022-09-01T09:16:17.692Z,101330.81
2022-09-01T09:19:00.623Z,101334.88
2022-09-01T09:21:33.222Z,101329.50
2022-09-01T09:24:10.553Z,101334.03
2022-09-01T09:26:44.800Z,101332.00
2022-09-01T09:29:11.578Z,101321.75
2022-09-01T09:32:22.419Z,101317.44
2022-09-01T09:34:50.489Z,101317.34
2022-09-01T09:37:24.730Z,101306.88
2022-09-01T09:40:12.051Z,101306.44
2022-09-01T09:42:40.580Z,101309.78
2022-09-01T09:45:21.583Z,101300.59
2022-09-01T09:47:48.495Z,101295.47
2022-09-01T09:50:22.913Z,101283.47
2022-09-01T09:52:51.124Z,101288.22
2022-09-01T09:55:26.793Z,101295.53
2022-09-01T09:57:56.613Z,101284.56
2022-09-01T10:00:29.435Z,101290.44
2022-09-01T10:03:12.404Z,101288.97
2022-09-01T10:05:44.136Z,101280.81
2022-09-01T10:08:15.718Z,101276.06
2022-09-01T10:10:44.118Z,101266.09
2022-09-01T10:13:16.598Z,101262.81
2022-09-01T10:15:51.245Z,101258.53
2022-09-01T10:18:29.382Z,101255.75
2022-09-01T10:21:08.150Z,101253.00
2022-09-01T10:23:37.656Z,101256.25
2022-09-01T10:26:14.241Z,101256.81
2022-09-01T10:28:52.926Z,101250.91
2022-09-01T10:31:20.431Z,101243.50
2022-09-01T10:33:47.765Z,101245.28
2022-09-01T10:36:15.444Z,101248.34
2022-09-01T10:38:46.867Z,101251.34
2022-09-01T10:41:48.169Z,101240.75
2022-09-01T10:44:21.095Z,101230.88
2022-09-01T10:47:28.111Z,101237.91
2022-09-01T10:49:55.985Z,101239.00
2022-09-01T10:52:58.869Z,101236.59
2022-09-01T10:55:32.868Z,101233.78
2022-09-01T10:59:29.850Z,101221.81
2022-09-01T11:03:51.553Z,101215.00
2022-09-01T11:09:48.649Z,101212.66
2022-09-01T11:12:15.137Z,101227.94
2022-09-01T11:14:52.153Z,101227.84
2022-09-01T11:17:27.726Z,101209.03
2022-09-01T11:20:02.106Z,101217.78
2022-09-01T11:22:32.580Z,101220.22
2022-09-01T11:25:12.826Z,101218.31
2022-09-01T11:27:48.610Z,101216.59
2022-09-01T11:30:21.033Z,101204.06
2022-09-01T11:32:50.782Z,101203.25
2022-09-01T11:35:21.636Z,101202.41
2022-09-01T11:37:49.926Z,101199.41
2022-09-01T11:40:29.745Z,101204.06
2022-09-01T11:43:04.457Z,101206.44
2022-09-01T11:45:32.984Z,101201.50
2022-09-01T11:48:08.172Z,101196.50
2022-09-01T11:50:37.873Z,101195.50
2022-09-01T11:53:08.027Z,101193.53
2022-09-01T11:55:34.454Z,101189.38
2022-09-01T11:58:01.886Z,101191.91
2022-09-01T12:00:33.974Z,101185.31
2022-09-01T12:03:00.646Z,101195.88
2022-09-01T12:05:34.117Z,101187.03
2022-09-01T12:08:03.552Z,101193.97
2022-09-01T12:10:36.521Z,101184.72
2022-09-01T12:13:22.611Z,101184.75
2022-09-01T12:16:16.471Z,101178.38
2022-09-01T12:18:51.354Z,101171.22
2022-09-01T12:21:22.913Z,101163.09
2022-09-01T12:23:49.384Z,101158.19
2022-09-01T12:26:19.714Z,101161.94
2022-09-01T12:28:49.602Z,101153.16
2022-09-01T12:31:27.312Z,101163.56
2022-09-01T12:33:56.422Z,101152.16
2022-09-01T12:36:26.808Z,101149.56
2022-09-01T12:38:55.338Z,101155.81
2022-09-01T12:41:31.246Z,101157.56
2022-09-01T12:43:57.699Z,101154.88
2022-09-01T12:46:41.416Z,101153.06
2022-09-01T12:49:19.652Z,101145.91
2022-09-01T12:51:48.466Z,101143.34
2022-09-01T12:54:15.321Z,101142.31
2022-09-01T12:56:48.409Z,101126.13
2022-09-01T12:59:36.055Z,101124.38
2022-09-01T13:02:26.629Z,101127.78
2022-09-01T13:04:53.136Z,101132.50
2022-09-01T13:07:19.583Z,101124.34
2022-09-01T13:09:46.138Z,101119.25
2022-09-01T13:12:21.092Z,101119.97
2022-09-01T13:14:47.810Z,101115.28
2022-09-01T13:17:14.907Z,101112.91
2022-09-01T13:19:41.695Z,101109.34
2022-09-01T13:22:08.195Z,101105.47
2022-09-01T13:24:34.657Z,101106.50
2022-09-01T13:29:48.474Z,101102.97
2022-09-01T13:32:33.081Z,101099.66
2022-09-01T13:34:59.702Z,101091.19
2022-09-01T13:37:26.174Z,101098.25
2022-09-01T13:39:52.703Z,101095.59
2022-09-01T13:42:19.227Z,101087.34
2022-09-01T13:44:49.793Z,101093.53
2022-09-01T13:47:34.257Z,101084.53
2022-09-01T13:54:00.357Z,101076.34
2022-09-01T13:56:26.807Z,101086.91
2022-09-01T13:58:53.316Z,101078.63
2022-09-01T14:01:19.861Z,101066.47
2022-09-01T14:03:50.074Z,101075.81
2022-09-01T14:06:18.489Z,101075.78
2022-09-01T14:08:44.989Z,101076.22
2022-09-01T14:11:20.029Z,101072.63
2022-09-01T14:13:47.091Z,101080.47
2022-09-01T14:16:14.910Z,101072.69
2022-09-01T14:18:42.830Z,101076.41
2022-09-01T14:21:14.669Z,101064.47
2022-09-01T14:23:46.125Z,101077.66
2022-09-01T14:26:15.084Z,101069.81
2022-09-01T14:28:45.656Z,101067.66
2022-09-01T14:31:13.628Z,101064.25
2022-09-01T14:33:40.796Z,101059.28
2022-09-01T14:36:13.203Z,101048.38
2022-09-01T14:38:41.396Z,101062.56
2022-09-01T14:41:07.847Z,101061.88
2022-09-01T14:43:34.293Z,101052.44
2022-09-01T14:46:10.114Z,101060.97
2022-09-01T14:48:38.399Z,101071.78
2022-09-01T14:51:05.886Z,101065.69
2022-09-01T14:53:32.718Z,101070.41
2022-09-01T14:56:00.339Z,101067.72
2022-09-01T14:58:28.456Z,101064.00
2022-09-01T15:01:00.465Z,101068.56
2022-09-01T15:07:10.632Z,101051.59
2022-09-01T15:09:37.699Z,101046.97
2022-09-01T15:12:04.513Z,101037.91
2022-09-01T15:14:32.955Z,101030.53
2022-09-01T15:16:59.413Z,101028.06
2022-09-01T15:19:25.975Z,101029.00
2022-09-01T15:21:52.645Z,101039.03
2022-09-01T15:24:19.300Z,101030.38
2022-09-01T15:26:47.307Z,101028.44
2022-09-01T15:29:15.185Z,101034.50
2022-09-01T15:31:43.277Z,101036.22
2022-09-01T15:34:10.752Z,101045.81
2022-09-01T15:36:42.295Z,101035.31
2022-09-01T15:39:09.195Z,101033.72
2022-09-01T15:41:36.644Z,101039.75
2022-09-01T15:44:07.323Z,101031.63
2022-09-01T15:46:35.028Z,101023.19
2022-09-01T15:49:03.715Z,101026.81
2022-09-01T15:51:42.476Z,101026.69
2022-09-01T15:54:15.291Z,101022.88
2022-09-01T15:56:42.925Z,101017.06
2022-09-01T15:59:10.630Z,101012.34
2022-09-01T16:01:39.717Z,101025.94
2022-09-01T16:04:08.211Z,101015.19
2022-09-01T16:06:35.239Z,101025.63
2022-09-01T16:09:02.246Z,101021.19
2022-09-01T16:11:28.841Z,101020.31
2022-09-01T16:13:57.008Z,101023.38
2022-09-01T16:16:40.518Z,101008.69
2022-09-01T16:19:33.123Z,101019.38
2022-09-01T16:22:08.523Z,101009.72
2022-09-01T16:24:42.547Z,101007.19
2022-09-01T16:27:14.188Z,101010.69
2022-09-01T16:29:45.572Z,101011.34
2022-09-01T16:32:12.516Z,101018.22
2022-09-01T16:34:46.644Z,101010.06
2022-09-01T16:37:22.190Z,101019.19
2022-09-01T16:39:51.790Z,101016.28
2022-09-01T16:42:38.344Z,101012.50
2022-09-01T16:45:18.458Z,101010.97
2022-09-01T16:47:59.021Z,101015.56
2022-09-01T16:54:38.759Z,100995.38
2022-09-01T16:57:20.457Z,100999.75
2022-09-01T16:59:55.643Z,100995.59
2022-09-01T17:02:44.054Z,100991.16
2022-09-01T17:05:23.985Z,100993.56
2022-09-01T17:07:54.585Z,101002.31
2022-09-01T17:10:30.248Z,101007.16
2022-09-01T17:12:57.770Z,101007.53
2022-09-01T17:15:39.368Z,101011.50
2022-09-01T17:18:22.244Z,101011.81
2022-09-01T17:20:54.964Z,101013.13
2022-09-01T17:23:30.302Z,101013.97
2022-09-01T17:26:01.608Z,101012.50
2022-09-01T17:28:39.153Z,101019.84
2022-09-01T17:31:10.337Z,101015.88
2022-09-01T17:33:48.444Z,101023.06
2022-09-01T17:36:18.682Z,101020.38
2022-09-01T17:39:01.055Z,101021.06
2022-09-01T17:41:52.780Z,101019.09
2022-09-01T17:44:22.185Z,101025.63
2022-09-01T17:47:20.382Z,101018.59
2022-09-01T17:50:02.818Z,101023.63
2022-09-01T17:52:52.380Z,101018.78
2022-09-01T17:55:57.007Z,101024.88
2022-09-01T17:58:49.123Z,101026.47
2022-09-01T18:01:28.183Z,101021.84
2022-09-01T18:04:39.567Z,101022.69
2022-09-01T18:07:36.387Z,101022.06
2022-09-01T18:10:06.224Z,101016.84
2022-09-01T18:12:38.077Z,101019.97
2022-09-01T18:15:10.374Z,101024.47
2022-09-01T18:20:26.661Z,101030.88
2022-09-01T18:23:19.271Z,101025.66
2022-09-01T18:25:57.530Z,101031.28
2022-09-01T18:28:24.023Z,101033.91
2022-09-01T18:30:56.610Z,101039.72
2022-09-01T18:33:27.942Z,101033.47
2022-09-01T18:36:06.399Z,101043.41
2022-09-01T18:38:40.409Z,101044.91
2022-09-01T18:41:42.638Z,101042.03
2022-09-01T18:44:27.593Z,101048.53
2022-09-01T18:47:08.197Z,101046.53
2022-09-01T18:49:50.303Z,101057.84
2022-09-01T18:52:48.475Z,101053.41
2022-09-01T18:55:26.172Z,101057.66
2022-09-01T18:57:55.499Z,101059.22
2022-09-01T19:00:30.549Z,101060.50
2022-09-01T19:03:04.564Z,101056.72
2022-09-01T19:05:43.346Z,101063.75
2022-09-01T19:08:36.950Z,101061.81
2022-09-01T19:11:13.519Z,101063.81
2022-09-01T19:14:13.338Z,101073.47
2022-09-01T19:16:52.454Z,101063.34
2022-09-01T19:19:34.025Z,101072.31
2022-09-01T19:22:01.461Z,101071.53
2022-09-01T19:25:20.687Z,101074.94
2022-09-01T19:28:13.630Z,101086.03
2022-09-01T19:31:25.300Z,101086.28
2022-09-01T19:33:58.640Z,101086.53
2022-09-01T19:36:34.211Z,101089.38
2022-09-01T19:39:01.246Z,101081.38
2022-09-01T19:41:35.455Z,101097.72
2022-09-01T19:44:08.431Z,101097.63
2022-09-01T19:46:41.386Z,101099.16
2022-09-01T19:49:34.008Z,101104.19
2022-09-01T19:52:11.056Z,101098.53
2022-09-01T19:54:46.642Z,101101.88
2022-09-01T19:57:50.471Z,101102.19
2022-09-01T20:00:41.950Z,101110.72
2022-09-01T20:03:13.221Z,101103.84
2022-09-01T20:05:42.982Z,101098.25
2022-09-01T20:08:37.827Z,101100.09
2022-09-01T20:11:10.698Z,101100.94
2022-09-01T20:13:44.000Z,101096.84
2022-09-01T20:16:35.883Z,101095.97
2022-09-01T20:19:16.497Z,101100.88
2022-09-01T20:21:45.712Z,101101.28
2022-09-01T20:24:39.727Z,101103.56
2022-09-01T20:27:22.726Z,101100.63
2022-09-01T20:30:04.535Z,101108.53
2022-09-01T20:32:53.143Z,101105.16
2022-09-01T20:35:36.293Z,101100.84
2022-09-01T20:38:34.149Z,101107.81
2022-09-01T20:41:09.116Z,101107.81
2022-09-01T20:43:40.375Z,101106.31
2022-09-01T20:46:07.426Z,101106.91
2022-09-01T20:48:40.073Z,101103.44
2022-09-01T20:51:15.221Z,101102.75
2022-09-01T20:54:06.057Z,101102.50
2022-09-01T20:56:40.583Z,101108.00
2022-09-01T20:59:18.115Z,101107.69
2022-09-01T21:02:38.604Z,101106.56
2022-09-01T21:05:45.489Z,101104.50
2022-09-01T21:08:18.112Z,101112.88
2022-09-01T21:10:52.037Z,101112.66
2022-09-01T21:13:46.072Z,101109.06
2022-09-01T21:16:34.028Z,101110.41
2022-09-01T21:19:06.236Z,101111.94
2022-09-01T21:21:32.645Z,101111.47
2022-09-01T21:23:59.275Z,101111.16
2022-09-01T21:26:25.689Z,101118.34
2022-09-01T21:28:56.109Z,101113.25
2022-09-01T21:31:24.154Z,101114.44
2022-09-01T21:33:51.539Z,101109.53
2022-09-01T21:36:18.281Z,101109.28
2022-09-01T21:38:44.763Z,101111.22
2022-09-01T21:41:13.271Z,101110.28
2022-09-01T21:43:44.261Z,101109.50
2022-09-01T21:46:13.525Z,101110.16
2022-09-01T21:48:40.226Z,101110.09
2022-09-01T21:51:06.958Z,101103.59
2022-09-01T21:53:33.451Z,101104.56
2022-09-01T21:56:00.116Z,101098.59
2022-09-01T21:58:26.718Z,101106.88
2022-09-01T22:00:53.334Z,101102.81
2022-09-01T22:03:20.406Z,101100.16
2022-09-01T22:05:47.150Z,101106.88
2022-09-01T22:08:15.202Z,101105.69
2022-09-01T22:10:44.731Z,101101.44
2022-09-01T22:13:11.339Z,101105.94
2022-09-01T22:15:43.326Z,101094.91
2022-09-01T22:18:10.335Z,101097.47
2022-09-01T22:20:36.870Z,101103.38
2022-09-01T22:23:03.635Z,101105.09
2022-09-01T22:25:32.518Z,101097.00
2022-09-01T22:28:03.518Z,101095.44
2022-09-01T22:30:30.451Z,101082.53
2022-09-01T22:32:56.962Z,101089.00
2022-09-01T22:35:23.592Z,101086.28
2022-09-01T22:37:50.290Z,101089.38
2022-09-01T22:40:17.164Z,101090.72
2022-09-01T22:42:44.170Z,101091.84
2022-09-01T22:45:11.492Z,101086.84
2022-09-01T22:47:38.542Z,101086.78
2022-09-01T22:50:07.369Z,101093.34
2022-09-01T22:52:35.563Z,101092.53
2022-09-01T22:55:03.296Z,101090.41
2022-09-01T22:57:29.927Z,101100.28
2022-09-01T22:59:56.653Z,101098.50
2022-09-01T23:02:23.436Z,101090.66
2022-09-01T23:04:50.382Z,101097.63
2022-09-01T23:07:17.320Z,101099.25
2022-09-01T23:09:43.973Z,101095.66
2022-09-01T23:12:10.611Z,101093.69
2022-09-01T23:14:40.318Z,101095.59
2022-09-01T23:17:06.763Z,101082.53
2022-09-01T23:19:33.393Z,101080.56
2022-09-01T23:22:00.053Z,101087.69
2022-09-01T23:24:26.573Z,101081.13
2022-09-01T23:26:53.486Z,101083.19
2022-09-01T23:29:20.066Z,101079.28
2022-09-01T23:31:46.765Z,101081.09
2022-09-01T23:34:41.180Z,101076.41
2022-09-01T23:37:08.063Z,101078.19
2022-09-01T23:39:34.489Z,101076.34
2022-09-01T23:42:01.145Z,101075.28
2022-09-01T23:44:27.597Z,101074.44
2022-09-01T23:46:54.237Z,101066.50
2022-09-01T23:49:20.764Z,101067.75
2022-09-01T23:51:47.493Z,101070.94
2022-09-01T23:54:14.946Z,101057.53
2022-09-01T23:56:41.413Z,101059.31
2022-09-01T23:59:08.069Z,101061.41
